createdAt,value
2023-05-05T00:01:02.366Z,2.60
2023-05-05T00:03:30.112Z,2.63
2023-05-05T00:05:58.077Z,2.88
2023-05-05T00:08:25.696Z,3.92
2023-05-05T00:10:53.558Z,2.72
2023-05-05T00:13:22.327Z,2.80
2023-05-05T00:15:51.920Z,2.63
2023-05-05T00:18:20.641Z,2.70
2023-05-05T00:20:48.975Z,2.33
2023-05-05T00:23:17.001Z,2.15
2023-05-05T00:25:44.505Z,2.30
2023-05-05T00:28:14.028Z,2.70
2023-05-05T00:30:41.773Z,2.58
2023-05-05T00:33:11.333Z,1.92
2023-05-05T00:35:38.868Z,2.67
2023-05-05T00:38:07.071Z,2.10
2023-05-05T00:40:34.615Z,2.28
2023-05-05T00:43:02.679Z,2.78
2023-05-05T00:45:30.988Z,3.53
2023-05-05T00:48:00.629Z,2.65
2023-05-05T00:50:30.782Z,2.55
2023-05-05T00:53:05.864Z,2.28
2023-05-05T00:55:35.605Z,2.33
2023-05-05T00:58:04.232Z,2.50
2023-05-05T01:00:31.973Z,2.85
2023-05-05T01:02:59.994Z,2.85
2023-05-05T01:05:37.286Z,2.60
2023-05-05T01:08:25.263Z,2.67
2023-05-05T01:11:03.133Z,2.45
2023-05-05T01:13:49.184Z,2.55
2023-05-05T01:16:24.976Z,2.50
2023-05-05T01:19:37.345Z,2.60
2023-05-05T01:22:09.006Z,2.50
2023-05-05T01:24:45.010Z,2.30
2023-05-05T01:27:45.330Z,3.28
2023-05-05T01:30:31.754Z,2.47
2023-05-05T01:33:08.406Z,2.75
2023-05-05T01:35:47.389Z,2.92
2023-05-05T01:38:21.750Z,2.60
2023-05-05T01:41:11.481Z,3.33
2023-05-05T01:43:41.203Z,2.90
2023-05-05T01:46:09.419Z,3.00
2023-05-05T01:48:38.908Z,3.38
2023-05-05T01:51:10.020Z,2.75
2023-05-05T01:53:39.673Z,3.50
2023-05-05T01:56:09.610Z,3.83
2023-05-05T01:58:38.477Z,3.20
2023-05-05T02:01:06.534Z,3.42
2023-05-05T02:03:37.585Z,2.95
2023-05-05T02:06:07.708Z,2.77
2023-05-05T02:08:37.690Z,3.83
2023-05-05T02:11:06.923Z,3.22
2023-05-05T02:13:36.572Z,3.00
2023-05-05T02:16:06.226Z,2.88
2023-05-05T02:18:36.119Z,3.50
2023-05-05T02:21:04.247Z,3.25
2023-05-05T02:23:33.890Z,4.25
2023-05-05T02:26:06.996Z,3.33
2023-05-05T02:28:48.902Z,3.20
2023-05-05T02:31:17.927Z,3.60
2023-05-05T02:33:47.562Z,3.83
2023-05-05T02:36:20.743Z,3.17
2023-05-05T02:39:01.288Z,4.00
2023-05-05T02:41:35.387Z,3.35
2023-05-05T02:44:09.753Z,4.32
2023-05-05T02:46:39.490Z,4.07
2023-05-05T02:49:07.429Z,3.85
2023-05-05T02:51:36.523Z,4.80
2023-05-05T02:54:09.812Z,4.70
2023-05-05T02:56:40.975Z,4.50
2023-05-05T02:59:23.585Z,4.78
2023-05-05T03:02:23.285Z,5.00
2023-05-05T03:04:56.951Z,4.95
2023-05-05T03:07:31.287Z,5.60
2023-05-05T03:10:10.270Z,5.15
2023-05-05T03:12:49.270Z,5.32
2023-05-05T03:15:26.521Z,5.93
2023-05-05T03:17:56.641Z,5.80
2023-05-05T03:20:25.200Z,6.10
2023-05-05T03:22:54.947Z,5.13
2023-05-05T03:25:22.987Z,6.38
2023-05-05T03:27:51.025Z,5.60
2023-05-05T03:30:21.501Z,6.40
2023-05-05T03:32:52.026Z,5.68
2023-05-05T03:35:20.341Z,6.93
2023-05-05T03:37:48.260Z,7.45
2023-05-05T03:40:17.613Z,7.68
2023-05-05T03:42:45.614Z,7.25
2023-05-05T03:45:13.910Z,8.52
2023-05-05T03:47:41.591Z,8.23
2023-05-05T03:50:09.681Z,8.07
2023-05-05T03:52:37.614Z,8.43
2023-05-05T03:55:06.957Z,8.57
2023-05-05T03:57:34.582Z,8.40
2023-05-05T04:00:02.463Z,8.13
2023-05-05T04:02:31.446Z,8.48
2023-05-05T04:04:59.255Z,8.70
2023-05-05T04:07:27.110Z,9.57
2023-05-05T04:09:56.091Z,9.20
2023-05-05T04:12:23.883Z,9.73
2023-05-05T04:14:51.417Z,10.15
2023-05-05T04:17:19.027Z,10.50
2023-05-05T04:19:46.687Z,10.23
2023-05-05T04:22:14.404Z,9.85
2023-05-05T04:24:42.165Z,9.82
2023-05-05T04:27:09.739Z,11.38
2023-05-05T04:29:37.472Z,10.30
2023-05-05T04:32:05.287Z,9.50
2023-05-05T04:34:32.869Z,9.68
2023-05-05T04:37:01.192Z,11.38
2023-05-05T04:39:29.958Z,10.30
2023-05-05T04:41:57.929Z,9.85
2023-05-05T04:44:25.748Z,10.77
2023-05-05T04:46:53.588Z,9.18
2023-05-05T04:49:21.645Z,10.80
2023-05-05T04:51:49.216Z,11.30
2023-05-05T04:54:17.007Z,12.50
2023-05-05T04:56:44.662Z,12.40
2023-05-05T04:59:12.532Z,13.20
2023-05-05T05:01:41.146Z,13.80
2023-05-05T05:04:10.615Z,13.68
2023-05-05T05:06:38.253Z,12.13
2023-05-05T05:09:06.006Z,11.68
2023-05-05T05:11:33.643Z,9.70
2023-05-05T05:14:01.306Z,9.85
2023-05-05T05:16:28.843Z,10.25
2023-05-05T05:18:56.329Z,9.43
2023-05-05T05:21:24.088Z,8.05
2023-05-05T05:23:51.996Z,9.38
2023-05-05T05:26:20.217Z,7.32
2023-05-05T05:28:48.177Z,7.50
2023-05-05T05:31:15.642Z,7.50
2023-05-05T05:33:43.864Z,6.15
2023-05-05T05:36:13.077Z,7.22
2023-05-05T05:38:41.086Z,6.20
2023-05-05T05:41:08.506Z,6.70
2023-05-05T05:43:38.054Z,5.13
2023-05-05T05:46:08.209Z,5.93
2023-05-05T05:48:36.875Z,5.50
2023-05-05T05:51:04.352Z,6.40
2023-05-05T05:53:31.949Z,6.18
2023-05-05T05:56:01.345Z,6.00
2023-05-05T05:58:29.651Z,5.80
2023-05-05T06:00:59.812Z,7.03
2023-05-05T06:08:25.147Z,6.05
2023-05-05T06:10:54.582Z,7.47
2023-05-05T06:13:22.300Z,5.75
2023-05-05T06:15:51.831Z,6.05
2023-05-05T06:18:19.614Z,5.68
2023-05-05T06:20:50.871Z,6.30
2023-05-05T06:23:19.512Z,5.68
2023-05-05T06:25:54.812Z,6.70
2023-05-05T06:28:22.372Z,5.28
2023-05-05T06:30:49.805Z,5.97
2023-05-05T06:33:17.326Z,6.93
2023-05-05T06:35:44.759Z,6.55
2023-05-05T06:38:13.147Z,6.28
2023-05-05T06:40:40.646Z,6.70
2023-05-05T06:43:08.386Z,6.70
2023-05-05T06:45:43.757Z,6.60
2023-05-05T06:48:12.280Z,6.30
2023-05-05T06:50:40.106Z,7.00
2023-05-05T06:53:07.896Z,6.78
2023-05-05T06:55:35.412Z,6.50
2023-05-05T06:58:03.634Z,6.57
2023-05-05T07:00:31.780Z,6.25
2023-05-05T07:02:59.543Z,6.55
2023-05-05T07:05:27.084Z,5.97
2023-05-05T07:07:56.678Z,5.88
2023-05-05T07:10:24.967Z,6.45
2023-05-05T07:12:52.738Z,6.63
2023-05-05T07:15:28.888Z,5.90
2023-05-05T07:17:57.571Z,5.07
2023-05-05T07:20:25.407Z,6.97
2023-05-05T07:22:52.961Z,6.68
2023-05-05T07:25:20.963Z,6.00
2023-05-05T07:27:48.482Z,6.50
2023-05-05T07:30:18.321Z,6.47
2023-05-05T07:32:46.719Z,6.43
2023-05-05T07:35:14.373Z,5.30
2023-05-05T07:37:42.073Z,5.63
2023-05-05T07:40:10.058Z,5.10
2023-05-05T07:42:37.779Z,5.32
2023-05-05T07:45:06.392Z,4.85
2023-05-05T07:47:33.993Z,4.75
2023-05-05T07:50:01.529Z,5.68
2023-05-05T07:52:44.270Z,4.50
2023-05-05T07:55:15.827Z,4.13
2023-05-05T07:57:43.556Z,4.72
2023-05-05T08:00:13.744Z,3.78
2023-05-05T08:02:41.563Z,4.07
2023-05-05T08:05:09.821Z,4.95
2023-05-05T08:07:41.230Z,3.92
2023-05-05T08:10:10.802Z,4.13
2023-05-05T08:12:38.618Z,4.38
2023-05-05T08:15:07.621Z,4.10
2023-05-05T08:17:47.262Z,3.22
2023-05-05T08:20:15.714Z,4.07
2023-05-05T08:22:43.499Z,3.72
2023-05-05T08:25:11.357Z,3.80
2023-05-05T08:27:40.502Z,3.78
2023-05-05T08:30:09.218Z,3.65
2023-05-05T08:32:38.297Z,2.88
2023-05-05T08:35:06.853Z,2.88
2023-05-05T08:37:34.929Z,3.45
2023-05-05T08:40:02.641Z,3.00
2023-05-05T08:42:38.102Z,2.90
2023-05-05T08:45:08.564Z,2.97
2023-05-05T08:47:37.763Z,2.30
2023-05-05T08:50:06.323Z,2.30
2023-05-05T08:52:43.986Z,3.15
2023-05-05T08:55:24.466Z,3.28
2023-05-05T08:57:55.878Z,2.57
2023-05-05T09:00:24.551Z,2.60
2023-05-05T09:02:54.608Z,2.70
2023-05-05T09:05:22.319Z,3.47
2023-05-05T09:07:50.987Z,3.35
2023-05-05T09:10:19.408Z,2.90
2023-05-05T09:12:47.374Z,2.67
2023-05-05T09:15:15.427Z,2.78
2023-05-05T09:17:43.934Z,3.03
2023-05-05T09:20:13.781Z,2.35
2023-05-05T09:22:46.715Z,3.20
2023-05-05T09:25:16.235Z,2.97
2023-05-05T09:27:48.986Z,2.17
2023-05-05T09:30:24.997Z,2.30
2023-05-05T09:32:54.398Z,2.53
2023-05-05T09:35:23.220Z,2.17
2023-05-05T09:37:50.726Z,1.80
2023-05-05T09:40:19.795Z,2.42
2023-05-05T09:42:47.989Z,1.77
2023-05-05T09:45:18.701Z,2.28
2023-05-05T09:47:47.571Z,1.67
2023-05-05T09:50:18.642Z,1.83
2023-05-05T09:53:00.767Z,1.80
2023-05-05T09:55:29.175Z,2.00
2023-05-05T09:57:57.188Z,2.85
2023-05-05T10:00:39.021Z,1.95
2023-05-05T10:03:06.933Z,2.38
2023-05-05T10:05:50.689Z,1.92
2023-05-05T10:08:22.968Z,2.22
2023-05-05T10:10:55.320Z,2.50
2023-05-05T10:13:24.883Z,2.40
2023-05-05T10:15:57.305Z,3.67
2023-05-05T10:18:27.058Z,2.90
2023-05-05T10:20:59.902Z,3.22
2023-05-05T10:23:41.649Z,2.20
2023-05-05T10:26:14.021Z,1.90
2023-05-05T10:28:54.894Z,2.15
2023-05-05T10:31:33.920Z,2.40
2023-05-05T10:34:05.992Z,2.35
2023-05-05T10:36:34.241Z,2.17
2023-05-05T10:39:03.059Z,2.20
2023-05-05T10:41:32.037Z,2.53
2023-05-05T10:44:03.692Z,2.70
2023-05-05T10:46:32.269Z,2.22
2023-05-05T10:49:07.169Z,1.83
2023-05-05T10:51:46.780Z,2.45
2023-05-05T10:54:24.747Z,2.25
2023-05-05T10:56:53.117Z,2.33
2023-05-05T10:59:39.270Z,2.65
2023-05-05T11:02:22.318Z,2.80
2023-05-05T11:05:21.068Z,2.55
2023-05-05T11:07:51.490Z,2.85
2023-05-05T11:10:21.196Z,2.55
2023-05-05T11:12:52.093Z,2.47
2023-05-05T11:15:29.552Z,2.40
2023-05-05T11:17:58.936Z,2.35
2023-05-05T11:20:52.477Z,2.03
2023-05-05T11:23:20.230Z,1.67
2023-05-05T11:25:47.965Z,1.48
2023-05-05T11:28:24.953Z,1.95
2023-05-05T11:30:55.894Z,1.80
2023-05-05T11:33:30.319Z,2.00
2023-05-05T11:36:13.303Z,2.00
2023-05-05T11:39:10.148Z,1.90
2023-05-05T11:41:58.502Z,1.83
2023-05-05T11:44:35.926Z,1.73
2023-05-05T11:47:06.545Z,1.65
2023-05-05T11:49:36.396Z,1.88
2023-05-05T11:52:05.785Z,1.80
2023-05-05T11:54:36.220Z,2.00
2023-05-05T11:57:08.571Z,1.63
2023-05-05T11:59:49.613Z,1.70
2023-05-05T12:02:18.560Z,1.88
2023-05-05T12:04:47.143Z,2.20
2023-05-05T12:07:16.244Z,2.13
2023-05-05T12:09:45.781Z,1.88
2023-05-05T12:12:14.035Z,1.85
2023-05-05T12:14:54.280Z,1.73
2023-05-05T12:17:23.499Z,1.60
2023-05-05T12:19:53.655Z,2.50
2023-05-05T12:22:24.575Z,1.67
2023-05-05T12:24:59.672Z,1.30
2023-05-05T12:27:28.638Z,2.05
2023-05-05T12:29:57.620Z,2.30
2023-05-05T12:32:28.198Z,1.45
2023-05-05T12:34:57.547Z,1.85
2023-05-05T12:37:27.044Z,2.05
2023-05-05T12:39:57.342Z,2.10
2023-05-05T12:42:25.281Z,1.25
2023-05-05T12:44:53.203Z,1.67
2023-05-05T12:47:32.040Z,1.40
2023-05-05T12:50:00.588Z,1.73
2023-05-05T12:52:43.059Z,1.70
2023-05-05T12:55:11.489Z,1.95
2023-05-05T12:57:58.027Z,2.22
2023-05-05T13:00:26.220Z,1.90
2023-05-05T13:02:54.082Z,1.83
2023-05-05T13:05:41.295Z,2.10
2023-05-05T13:08:08.979Z,2.15
2023-05-05T13:10:37.240Z,1.83
2023-05-05T13:13:05.045Z,2.17
2023-05-05T13:15:33.785Z,1.80
2023-05-05T13:18:02.707Z,2.25
2023-05-05T13:20:30.775Z,2.10
2023-05-05T13:22:58.328Z,2.00
2023-05-05T13:25:26.119Z,2.13
2023-05-05T13:27:53.717Z,2.35
2023-05-05T13:30:21.535Z,2.05
2023-05-05T13:32:49.273Z,3.03
2023-05-05T13:35:17.270Z,3.25
2023-05-05T13:37:46.658Z,2.40
2023-05-05T13:40:14.472Z,1.60
2023-05-05T13:42:41.938Z,1.98
2023-05-05T13:45:10.143Z,2.30
2023-05-05T13:47:37.999Z,2.00
2023-05-05T13:50:06.243Z,2.15
2023-05-05T13:52:33.824Z,2.25
2023-05-05T13:55:01.392Z,1.92
2023-05-05T13:57:29.217Z,1.63
2023-05-05T13:59:57.168Z,1.88
2023-05-05T14:02:24.881Z,1.90
2023-05-05T14:04:52.645Z,2.13
2023-05-05T14:07:20.289Z,2.05
2023-05-05T14:09:47.931Z,1.90
2023-05-05T14:12:15.567Z,1.88
2023-05-05T14:14:42.944Z,2.22
2023-05-05T14:17:10.607Z,1.70
2023-05-05T14:19:38.072Z,3.35
2023-05-05T14:22:05.685Z,2.30
2023-05-05T14:24:33.082Z,2.17
2023-05-05T14:27:00.582Z,2.58
2023-05-05T14:29:28.006Z,2.45
2023-05-05T14:31:55.577Z,2.22
2023-05-05T14:34:23.212Z,2.30
2023-05-05T14:36:50.792Z,3.15
2023-05-05T14:39:18.282Z,2.17
2023-05-05T14:41:46.508Z,2.40
2023-05-05T14:44:13.978Z,2.65
2023-05-05T14:46:42.555Z,1.95
2023-05-05T14:49:11.098Z,3.85
2023-05-05T14:51:39.156Z,2.10
2023-05-05T14:54:14.340Z,2.55
2023-05-05T14:56:49.053Z,2.53
2023-05-05T14:59:16.551Z,3.28
2023-05-05T15:01:44.151Z,2.28
2023-05-05T15:04:11.691Z,2.30
2023-05-05T15:06:39.128Z,2.38
2023-05-05T15:09:06.724Z,2.97
2023-05-05T15:11:34.203Z,2.17
2023-05-05T15:14:02.074Z,2.20
2023-05-05T15:16:33.771Z,2.08
2023-05-05T15:19:02.522Z,2.28
2023-05-05T15:21:30.080Z,2.05
2023-05-05T15:23:57.447Z,2.47
2023-05-05T15:26:24.891Z,2.10
2023-05-05T15:28:52.769Z,2.72
2023-05-05T15:31:20.309Z,2.08
2023-05-05T15:33:49.505Z,2.28
2023-05-05T15:36:22.360Z,2.30
2023-05-05T15:38:50.006Z,3.42
2023-05-05T15:41:17.737Z,2.20
2023-05-05T15:43:45.393Z,2.10
2023-05-05T15:46:13.027Z,3.03
2023-05-05T15:48:40.589Z,2.55
2023-05-05T15:51:08.106Z,2.25
2023-05-05T15:53:36.104Z,1.40
2023-05-05T15:56:03.808Z,3.92
2023-05-05T15:58:31.450Z,3.20
2023-05-05T16:00:59.054Z,3.33
2023-05-05T16:03:26.787Z,2.83
2023-05-05T16:05:54.326Z,3.58
2023-05-05T16:08:21.840Z,2.75
2023-05-05T16:10:49.453Z,2.53
2023-05-05T16:13:17.111Z,2.28
2023-05-05T16:15:44.836Z,2.65
2023-05-05T16:18:12.430Z,2.30
2023-05-05T16:20:39.890Z,3.35
2023-05-05T16:23:08.029Z,3.10
2023-05-05T16:25:35.780Z,2.42
2023-05-05T16:28:06.673Z,2.80
2023-05-05T16:30:34.395Z,2.88
2023-05-05T16:33:02.010Z,2.65
2023-05-05T16:35:29.625Z,2.65
2023-05-05T16:37:57.506Z,2.50
2023-05-05T16:40:24.988Z,2.63
2023-05-05T16:42:52.510Z,2.35
2023-05-05T16:45:20.229Z,2.53
2023-05-05T16:47:47.851Z,2.38
2023-05-05T16:50:17.301Z,3.30
2023-05-05T16:52:44.851Z,3.17
2023-05-05T16:55:12.497Z,3.28
2023-05-05T16:57:40.105Z,4.53
2023-05-05T17:00:09.283Z,3.10
2023-05-05T17:02:36.734Z,3.30
2023-05-05T17:05:04.723Z,3.63
2023-05-05T17:07:32.653Z,3.58
2023-05-05T17:10:00.274Z,7.35
2023-05-05T17:12:27.712Z,4.72
2023-05-05T17:14:56.398Z,5.20
2023-05-05T17:17:23.842Z,3.60
2023-05-05T17:19:51.480Z,3.70
2023-05-05T17:22:19.141Z,2.72
2023-05-05T17:24:46.717Z,2.42
2023-05-05T17:27:14.192Z,2.63
2023-05-05T17:29:41.727Z,3.08
2023-05-05T17:32:09.540Z,2.58
2023-05-05T17:34:37.257Z,3.30
2023-05-05T17:37:04.824Z,3.38
2023-05-05T17:39:32.896Z,3.03
2023-05-05T17:42:00.486Z,3.00
2023-05-05T17:44:27.998Z,6.25
2023-05-05T17:46:55.525Z,4.82
2023-05-05T17:49:25.319Z,3.65
2023-05-05T17:51:52.918Z,3.25
2023-05-05T17:54:21.159Z,3.78
2023-05-05T17:56:48.650Z,3.33
2023-05-05T17:59:16.128Z,3.80
2023-05-05T18:01:43.621Z,4.95
2023-05-05T18:04:11.071Z,5.75
2023-05-05T18:06:38.472Z,5.18
2023-05-05T18:09:05.834Z,5.55
2023-05-05T18:11:34.140Z,7.25
2023-05-05T18:14:01.581Z,4.97
2023-05-05T18:16:28.974Z,4.28
2023-05-05T18:18:56.392Z,9.15
2023-05-05T18:21:24.041Z,6.80
2023-05-05T18:23:57.283Z,5.78
2023-05-05T18:26:29.472Z,5.50
2023-05-05T18:28:57.521Z,5.50
2023-05-05T18:31:26.155Z,4.68
2023-05-05T18:33:53.795Z,5.53
2023-05-05T18:36:21.962Z,4.35
2023-05-05T18:38:50.090Z,4.97
2023-05-05T18:41:17.870Z,4.00
2023-05-05T18:43:45.474Z,4.18
2023-05-05T18:46:13.047Z,3.25
2023-05-05T18:48:40.563Z,3.65
2023-05-05T18:51:08.255Z,4.22
2023-05-05T18:53:35.900Z,5.65
2023-05-05T18:56:03.481Z,6.65
2023-05-05T18:58:30.914Z,6.20
2023-05-05T19:00:58.450Z,6.50
2023-05-05T19:03:26.088Z,7.18
2023-05-05T19:05:54.269Z,5.93
2023-05-05T19:08:22.486Z,5.18
2023-05-05T19:10:49.876Z,4.95
2023-05-05T19:13:18.027Z,6.45
2023-05-05T19:15:46.471Z,7.68
2023-05-05T19:18:13.966Z,4.68
2023-05-05T19:20:43.423Z,5.47
2023-05-05T19:23:11.676Z,8.20
2023-05-05T19:25:39.844Z,7.22
2023-05-05T19:28:07.255Z,5.75
2023-05-05T19:30:34.960Z,4.70
2023-05-05T19:33:02.484Z,5.32
2023-05-05T19:35:31.316Z,6.70
2023-05-05T19:37:58.880Z,9.05
2023-05-05T19:40:26.395Z,5.28
2023-05-05T19:42:54.058Z,3.83
2023-05-05T19:45:21.714Z,5.10
2023-05-05T19:47:49.264Z,4.82
2023-05-05T19:50:16.846Z,4.78
2023-05-05T19:52:44.308Z,5.50
2023-05-05T19:55:13.677Z,5.13
2023-05-05T19:57:41.748Z,5.18
2023-05-05T20:00:10.870Z,6.35
2023-05-05T20:02:39.102Z,5.60
2023-05-05T20:05:07.354Z,3.90
2023-05-05T20:07:34.853Z,4.35
2023-05-05T20:10:03.277Z,5.03
2023-05-05T20:12:30.884Z,4.38
2023-05-05T20:14:58.353Z,4.20
2023-05-05T20:17:26.728Z,5.20
2023-05-05T20:19:54.334Z,4.10
2023-05-05T20:22:22.031Z,4.68
2023-05-05T20:24:49.412Z,6.97
2023-05-05T20:27:16.919Z,4.38
2023-05-05T20:29:44.831Z,4.68
2023-05-05T20:32:12.377Z,4.30
2023-05-05T20:34:40.057Z,5.03
2023-05-05T20:37:07.576Z,5.00
2023-05-05T20:39:35.072Z,5.53
2023-05-05T20:42:02.709Z,4.70
2023-05-05T20:44:30.190Z,4.60
2023-05-05T20:46:57.788Z,3.35
2023-05-05T20:49:25.297Z,4.10
2023-05-05T20:51:52.794Z,4.55
2023-05-05T20:54:20.210Z,3.90
2023-05-05T20:56:47.634Z,3.58
2023-05-05T20:59:15.097Z,3.72
2023-05-05T21:01:42.800Z,3.83
2023-05-05T21:04:11.099Z,4.38
2023-05-05T21:06:38.563Z,4.80
2023-05-05T21:09:06.670Z,4.30
2023-05-05T21:11:34.183Z,3.95
2023-05-05T21:14:01.680Z,4.00
2023-05-05T21:16:29.949Z,5.78
2023-05-05T21:19:00.516Z,5.22
2023-05-05T21:21:28.135Z,4.45
2023-05-05T21:23:56.032Z,5.10
2023-05-05T21:26:26.815Z,5.80
2023-05-05T21:28:54.455Z,5.47
2023-05-05T21:31:22.797Z,4.55
2023-05-05T21:33:50.331Z,4.97
2023-05-05T21:36:19.169Z,4.13
2023-05-05T21:38:47.224Z,3.97
2023-05-05T21:41:14.936Z,4.90
2023-05-05T21:43:42.554Z,5.25
2023-05-05T21:46:10.072Z,4.05
2023-05-05T21:48:39.018Z,4.75
2023-05-05T21:51:07.914Z,6.30
2023-05-05T21:53:35.791Z,4.25
2023-05-05T21:56:05.496Z,5.00
2023-05-05T21:58:32.960Z,4.07
2023-05-05T22:01:01.195Z,4.93
2023-05-05T22:03:28.754Z,5.03
2023-05-05T22:05:56.288Z,4.97
2023-05-05T22:08:24.050Z,4.65
2023-05-05T22:10:52.300Z,4.88
2023-05-05T22:13:19.810Z,4.45
2023-05-05T22:15:47.751Z,5.03
2023-05-05T22:18:15.771Z,4.65
2023-05-05T22:20:43.927Z,4.95
2023-05-05T22:23:11.929Z,3.88
2023-05-05T22:25:39.473Z,4.95
2023-05-05T22:28:06.956Z,5.28
2023-05-05T22:30:34.484Z,4.45
2023-05-05T22:33:02.062Z,4.30
2023-05-05T22:35:30.111Z,4.45
2023-05-05T22:37:58.150Z,4.70
2023-05-05T22:40:25.883Z,4.60
2023-05-05T22:42:53.583Z,4.90
2023-05-05T22:45:22.783Z,4.00
2023-05-05T22:47:50.457Z,4.38
2023-05-05T22:50:18.277Z,4.78
2023-05-05T22:52:45.884Z,5.00
2023-05-05T22:55:14.649Z,5.10
2023-05-05T22:57:42.481Z,4.68
2023-05-05T23:00:10.683Z,4.47
2023-05-05T23:02:38.708Z,4.72
2023-05-05T23:05:06.695Z,4.85
2023-05-05T23:07:34.230Z,5.28
2023-05-05T23:10:02.136Z,4.85
2023-05-05T23:12:29.929Z,4.38
2023-05-05T23:14:57.454Z,4.45
2023-05-05T23:17:25.066Z,4.20
2023-05-05T23:19:52.573Z,4.40
2023-05-05T23:22:19.999Z,5.05
2023-05-05T23:24:47.400Z,5.00
2023-05-05T23:27:15.103Z,4.60
2023-05-05T23:29:42.691Z,4.80
2023-05-05T23:32:10.289Z,4.30
2023-05-05T23:34:37.949Z,4.72
2023-05-05T23:37:06.386Z,4.15
2023-05-05T23:39:34.718Z,4.03
2023-05-05T23:42:02.790Z,4.43
2023-05-05T23:44:30.333Z,3.90
2023-05-05T23:46:57.828Z,3.35
2023-05-05T23:49:26.432Z,4.00
2023-05-05T23:51:53.983Z,3.97
2023-05-05T23:54:21.389Z,4.20
2023-05-05T23:56:49.281Z,4.10
2023-05-05T23:59:17.882Z,3.72
